Time;durP1;ratioP1;P1;durP2;ratioP2;P2;SDS_P1;SDS_P2;PMS_P1;PMS_P2;Temp;Humidity;BMP_temperature;BMP_pressure;BME280_temperature;BME280_humidity;BME280_pressure;Samples;Min_cycle;Max_cycle;Signal;HPM_P1;HPM_P2
2022/05/09 00:01:02;;;;;;;17.88;5.03;;;4.20;99.90;;;;;;4969137;28;20080;-78
2022/05/09 00:03:28;;;;;;;18.30;4.80;;;4.10;99.90;;;;;;5016105;28;20048;-78
2022/05/09 00:05:53;;;;;;;12.25;5.13;;;4.10;99.90;;;;;;4983126;28;20056;-78
2022/05/09 00:08:19;;;;;;;14.88;4.63;;;4.20;99.90;;;;;;4968144;28;20048;-78
2022/05/09 00:10:45;;;;;;;16.83;4.95;;;4.10;99.90;;;;;;5000165;28;20049;-78
2022/05/09 00:13:10;;;;;;;15.27;4.78;;;4.10;99.90;;;;;;4985054;28;20110;-78
2022/05/09 00:15:36;;;;;;;10.50;4.97;;;4.00;99.90;;;;;;5000223;28;20049;-78
2022/05/09 00:18:02;;;;;;;17.63;5.00;;;4.10;99.90;;;;;;4997599;28;20044;-78
2022/05/09 00:20:27;;;;;;;15.02;5.30;;;4.00;99.90;;;;;;4980650;28;20107;-78
2022/05/09 00:22:54;;;;;;;13.85;5.25;;;3.90;99.90;;;;;;4985205;28;20140;-78
2022/05/09 00:25:23;;;;;;;12.68;5.60;;;3.90;99.90;;;;;;4984965;28;20122;-78
2022/05/09 00:27:50;;;;;;;15.68;6.13;;;3.90;99.90;;;;;;5000259;28;20438;-78
2022/05/09 00:30:16;;;;;;;12.15;4.53;;;3.90;99.90;;;;;;4969082;28;20029;-78
2022/05/09 00:32:42;;;;;;;10.50;4.88;;;3.80;99.90;;;;;;5000373;28;20399;-78
2022/05/09 00:35:10;;;;;;;10.55;5.07;;;4.80;99.90;;;;;;4999332;28;20053;-78
2022/05/09 00:37:36;;;;;;;14.38;5.53;;;3.80;99.90;;;;;;4998893;28;20033;-78
2022/05/09 00:40:05;;;;;;;15.32;5.63;;;3.80;99.90;;;;;;4996688;28;20045;-78
2022/05/09 00:42:31;;;;;;;19.10;5.43;;;3.80;99.90;;;;;;5015830;28;20092;-78
2022/05/09 00:44:57;;;;;;;12.43;4.70;;;3.90;99.90;;;;;;4967125;28;20171;-78
2022/05/09 00:47:23;;;;;;;16.52;4.82;;;3.70;99.90;;;;;;5000982;28;20029;-78
2022/05/09 00:49:54;;;;;;;13.05;4.90;;;4.70;99.90;;;;;;4968747;28;20130;-78
2022/05/09 00:52:25;;;;;;;14.75;5.40;;;3.70;99.90;;;;;;4999319;28;20476;-78
2022/05/09 00:55:03;;;;;;;10.00;4.43;;;3.70;99.90;;;;;;4999744;28;20114;-78
2022/05/09 00:57:32;;;;;;;12.20;4.88;;;3.60;99.90;;;;;;4982977;28;20029;-78
2022/05/09 01:00:02;;;;;;;16.55;5.30;;;3.60;99.90;;;;;;5001637;28;20041;-76
2022/05/09 01:02:29;;;;;;;14.13;5.25;;;4.40;99.90;;;;;;4998282;28;20389;-76
2022/05/09 01:04:57;;;;;;;13.45;5.28;;;3.60;99.90;;;;;;5002954;28;20060;-76
2022/05/09 01:07:24;;;;;;;16.30;5.47;;;3.50;99.90;;;;;;5000947;28;20041;-76
2022/05/09 01:09:51;;;;;;;13.85;5.80;;;3.60;99.90;;;;;;4999962;28;20057;-76
2022/05/09 01:12:28;;;;;;;13.77;5.07;;;3.60;99.90;;;;;;5001310;28;20128;-77
2022/05/09 01:14:54;;;;;;;19.30;5.70;;;3.50;99.90;;;;;;5000203;28;20045;-76
2022/05/09 01:17:23;;;;;;;16.45;5.80;;;3.50;99.90;;;;;;4983618;28;20489;-76
2022/05/09 01:19:52;;;;;;;12.40;4.70;;;3.50;99.90;;;;;;4998576;28;20384;-76
2022/05/09 01:22:24;;;;;;;14.15;5.45;;;3.70;99.90;;;;;;5016046;28;20055;-76
2022/05/09 01:24:51;;;;;;;16.50;6.25;;;3.40;99.90;;;;;;5002727;28;20046;-76
2022/05/09 01:27:17;;;;;;;14.30;4.82;;;3.60;99.90;;;;;;4998211;28;20049;-76
2022/05/09 01:30:04;;;;;;;12.75;4.78;;;3.40;99.90;;;;;;4980417;28;20050;-76
2022/05/09 01:32:38;;;;;;;13.50;5.35;;;3.30;99.90;;;;;;4985437;28;20045;-87
2022/05/09 01:35:31;;;;;;;11.15;4.80;;;3.30;99.90;;;;;;5006962;28;21020;-86
2022/05/09 01:38:18;;;;;;;16.90;5.30;;;3.30;99.90;;;;;;5009494;28;20049;-87
2022/05/09 01:40:44;;;;;;;;;;;3.30;99.90;;;;;;5010468;28;20041;-87
2022/05/09 01:43:10;;;;;;;13.17;4.50;;;3.90;99.90;;;;;;4995089;28;19928;-87
2022/05/09 01:45:36;;;;;;;17.50;5.43;;;4.20;99.90;;;;;;5010216;28;20041;-87
2022/05/09 01:50:46;;;;;;;16.35;5.63;;;3.30;99.90;;;;;;4992512;28;20420;-87
2022/05/09 01:53:12;;;;;;;17.83;5.22;;;3.50;99.90;;;;;;4987442;28;20045;-87
2022/05/09 01:55:37;;;;;;;15.93;5.75;;;3.30;99.90;;;;;;5003288;28;20084;-87
2022/05/09 01:58:04;;;;;;;14.82;5.30;;;3.30;99.90;;;;;;5004272;28;20060;-87
2022/05/09 02:00:32;;;;;;;16.45;5.43;;;3.20;99.90;;;;;;4971799;28;20080;-87
2022/05/09 02:03:00;;;;;;;12.50;5.65;;;3.30;99.90;;;;;;4990500;28;20045;-87
2022/05/09 02:05:26;;;;;;;15.10;5.28;;;3.30;99.90;;;;;;5004437;28;20525;-77
2022/05/09 02:07:53;;;;;;;14.45;4.88;;;3.30;99.90;;;;;;5002151;28;20038;-77
2022/05/09 02:10:19;;;;;;;16.55;5.63;;;3.30;99.90;;;;;;5004469;28;20034;-76
2022/05/09 02:12:45;;;;;;;15.50;5.43;;;3.30;99.90;;;;;;5002426;28;20045;-76
2022/05/09 02:15:11;;;;;;;10.88;5.10;;;3.20;99.90;;;;;;4987678;28;21456;-76
2022/05/09 02:17:38;;;;;;;13.32;4.97;;;3.20;99.90;;;;;;5003842;28;20460;-76
2022/05/09 02:20:05;;;;;;;12.93;5.18;;;3.30;99.90;;;;;;5025360;22;20398;-82
2022/05/09 02:22:32;;;;;;;16.90;5.95;;;3.20;99.90;;;;;;5030570;28;20034;-82
2022/05/09 02:24:58;;;;;;;15.38;5.10;;;3.20;99.90;;;;;;5037323;28;20038;-83
2022/05/09 02:27:24;;;;;;;11.70;5.18;;;3.20;99.90;;;;;;5036019;28;20493;-83
2022/05/09 02:29:50;;;;;;;12.27;5.10;;;3.20;99.90;;;;;;5036515;28;20386;-82
2022/05/09 02:32:16;;;;;;;9.47;5.00;;;3.10;99.90;;;;;;5022553;28;20043;-83
2022/05/09 02:34:42;;;;;;;16.83;5.45;;;3.10;99.90;;;;;;5032606;28;20037;-82
2022/05/09 02:37:08;;;;;;;12.02;5.07;;;3.10;99.90;;;;;;5035716;28;20041;-83
2022/05/09 02:39:34;;;;;;;10.60;5.00;;;3.10;99.90;;;;;;5017556;28;20969;-78
2022/05/09 02:42:00;;;;;;;18.70;5.03;;;3.10;99.90;;;;;;5032041;28;20044;-78
2022/05/09 02:44:27;;;;;;;16.13;6.00;;;3.00;99.90;;;;;;5015948;28;20448;-78
2022/05/09 02:46:53;;;;;;;12.85;6.32;;;3.50;99.90;;;;;;5032197;28;20040;-78
2022/05/09 02:49:19;;;;;;;53.78;6.30;;;3.80;99.90;;;;;;5033444;28;20036;-78
2022/05/09 02:51:48;;;;;;;14.88;6.05;;;3.10;99.90;;;;;;5016769;28;20037;-78
2022/05/09 02:54:14;;;;;;;13.55;5.10;;;3.10;99.90;;;;;;5030828;28;20048;-78
2022/05/09 02:56:39;;;;;;;12.48;5.72;;;3.10;99.90;;;;;;5030132;28;20045;-78
2022/05/09 02:59:05;;;;;;;16.77;5.60;;;3.60;99.90;;;;;;5031355;28;20524;-77
2022/05/09 03:01:31;;;;;;;14.27;5.18;;;3.10;99.90;;;;;;5029771;28;20036;-77
2022/05/09 03:06:41;;;;;;;13.23;6.07;;;3.90;99.90;;;;;;5016482;28;20573;-77
2022/05/09 03:09:06;;;;;;;12.27;5.82;;;3.40;99.90;;;;;;5013582;28;20037;-77
2022/05/09 03:11:32;;;;;;;14.10;5.90;;;3.00;99.90;;;;;;5029954;28;20033;-77
2022/05/09 03:13:58;;;;;;;13.30;5.63;;;3.10;99.90;;;;;;5033662;28;20032;-82
2022/05/09 03:16:23;;;;;;;48.08;5.78;;;3.00;99.90;;;;;;5032791;28;20438;-82
2022/05/09 03:18:51;;;;;;;17.17;6.38;;;3.00;99.90;;;;;;5035612;28;20514;-82
2022/05/09 03:21:17;;;;;;;15.07;5.90;;;3.50;99.90;;;;;;5033714;28;20060;-83
2022/05/09 03:23:43;;;;;;;17.87;6.00;;;3.00;99.90;;;;;;5034578;28;20041;-83
2022/05/09 03:26:08;;;;;;;18.35;6.70;;;3.00;99.90;;;;;;5035213;28;20040;-83
2022/05/09 03:28:34;;;;;;;17.88;6.40;;;3.30;99.90;;;;;;5030656;28;20116;-83
2022/05/09 03:31:00;;;;;;;25.00;7.13;;;3.00;99.90;;;;;;5048273;28;20031;-83
2022/05/09 03:33:27;;;;;;;17.77;6.25;;;3.00;99.90;;;;;;5017807;28;20134;-83
2022/05/09 03:35:54;;;;;;;17.85;6.47;;;3.20;99.90;;;;;;5035203;28;20044;-83
2022/05/09 03:38:20;;;;;;;18.92;6.47;;;3.00;99.90;;;;;;5033506;28;20037;-83
2022/05/09 03:40:46;;;;;;;16.77;7.20;;;3.00;99.90;;;;;;5030664;28;20037;-83
2022/05/09 03:43:12;;;;;;;16.92;6.28;;;3.00;99.90;;;;;;5047310;28;20059;-83
2022/05/09 03:45:44;;;;;;;17.10;7.32;;;3.80;99.90;;;;;;5032502;28;20052;-79
2022/05/09 03:48:09;;;;;;;20.03;7.00;;;3.00;99.90;;;;;;5013359;28;20529;-78
2022/05/09 03:50:35;;;;;;;17.13;6.57;;;3.00;99.90;;;;;;5015494;28;20119;-78
2022/05/09 03:53:01;;;;;;;18.92;6.07;;;3.00;99.90;;;;;;5018721;28;20051;-79
2022/05/09 03:55:27;;;;;;;17.00;7.22;;;3.00;99.90;;;;;;5035732;28;20055;-78
2022/05/09 03:57:55;;;;;;;20.30;7.65;;;3.00;99.90;;;;;;5030613;28;20101;-79
2022/05/09 04:00:24;;;;;;;18.02;7.25;;;3.70;99.90;;;;;;5031909;28;20486;-79
2022/05/09 04:02:51;;;;;;;20.63;7.78;;;3.10;99.90;;;;;;5030469;28;20038;-78
2022/05/09 04:05:17;;;;;;;19.08;7.63;;;3.20;99.90;;;;;;5028674;28;20054;-79
2022/05/09 04:07:45;;;;;;;19.58;6.88;;;3.20;99.90;;;;;;5030187;28;20044;-78
2022/05/09 04:10:12;;;;;;;14.35;6.72;;;;;;;;;;5015155;28;20051;-79
2022/05/09 04:12:39;;;;;;;14.67;6.80;;;3.20;99.90;;;;;;5029888;28;20041;-79
2022/05/09 04:17:49;;;;;;;16.08;6.68;;;3.20;99.90;;;;;;5047453;28;20041;-78
2022/05/09 04:20:15;;;;;;;18.05;6.72;;;3.70;99.90;;;;;;5015940;28;20045;-83
2022/05/09 04:22:41;;;;;;;16.10;7.03;;;3.30;99.90;;;;;;5031945;28;20052;-83
2022/05/09 04:25:08;;;;;;;16.17;7.40;;;3.30;99.90;;;;;;5038429;28;20485;-83
2022/05/09 04:27:33;;;;;;;13.65;6.25;;;3.40;99.90;;;;;;5036725;28;20114;-83
2022/05/09 04:30:00;;;;;;;15.93;6.78;;;3.40;99.90;;;;;;5014780;28;20484;-83
2022/05/09 04:32:25;;;;;;;10.57;7.00;;;3.50;99.90;;;;;;5029849;28;20032;-83
2022/05/09 04:34:51;;;;;;;15.18;6.68;;;3.50;99.90;;;;;;5028449;28;20098;-83
2022/05/09 04:37:17;;;;;;;13.75;6.68;;;3.60;99.90;;;;;;5028402;28;20044;-78
2022/05/09 04:39:42;;;;;;;15.73;7.43;;;3.70;99.90;;;;;;5017065;28;20126;-78
2022/05/09 04:42:09;;;;;;;12.63;7.50;;;3.70;99.90;;;;;;4999123;28;20237;-78
2022/05/09 04:44:35;;;;;;;12.57;7.00;;;3.80;99.90;;;;;;5029073;28;20044;-78
2022/05/09 04:47:01;;;;;;;19.55;7.78;;;4.00;99.90;;;;;;5027128;28;20036;-78
2022/05/09 04:49:27;;;;;;;15.90;7.00;;;4.00;99.90;;;;;;5027670;28;20088;-78
2022/05/09 04:51:52;;;;;;;17.42;7.78;;;4.10;99.90;;;;;;5013380;28;20032;-78
2022/05/09 04:54:18;;;;;;;18.92;8.32;;;4.20;99.90;;;;;;4996110;28;20045;-78
2022/05/09 04:56:44;;;;;;;18.13;8.45;;;4.30;99.90;;;;;;5026831;28;20049;-78
2022/05/09 04:59:09;;;;;;;17.38;8.25;;;4.40;99.90;;;;;;4996351;28;20040;-78
2022/05/09 05:01:35;;;;;;;20.35;7.88;;;4.60;99.90;;;;;;5046047;28;20051;-78
2022/05/09 05:04:03;;;;;;;18.58;8.15;;;4.70;99.90;;;;;;5010854;28;20042;-79
2022/05/09 05:06:29;;;;;;;19.27;9.00;;;4.80;99.90;;;;;;5028976;28;20040;-78
2022/05/09 05:08:54;;;;;;;16.73;7.97;;;5.00;99.90;;;;;;5028814;28;20480;-78
2022/05/09 05:11:20;;;;;;;21.38;8.55;;;5.30;99.90;;;;;;5015859;28;20119;-78
2022/05/09 05:13:46;;;;;;;18.45;7.50;;;5.70;99.90;;;;;;5029059;28;20048;-78
2022/05/09 05:16:11;;;;;;;20.63;7.78;;;6.20;99.90;;;;;;5030298;28;20480;-79
2022/05/09 05:18:37;;;;;;;18.73;7.97;;;6.60;99.90;;;;;;5029780;28;20057;-79
2022/05/09 05:21:12;;;;;;;18.02;7.60;;;7.00;99.90;;;;;;5028756;28;20044;-79
2022/05/09 05:23:38;;;;;;;20.17;6.95;;;7.10;99.90;;;;;;5031044;28;20068;-79
2022/05/09 05:26:05;;;;;;;12.80;6.47;;;7.40;99.90;;;;;;5014039;28;20072;-85
2022/05/09 05:28:32;;;;;;;15.57;6.15;;;7.80;99.90;;;;;;5037114;28;20498;-85
2022/05/09 05:31:15;;;;;;;15.45;6.25;;;8.10;99.90;;;;;;5031847;28;20053;-86
2022/05/09 05:33:41;;;;;;;16.13;6.00;;;8.50;99.90;;;;;;5033001;28;20133;-85
2022/05/09 05:36:06;;;;;;;14.73;5.82;;;8.70;99.90;;;;;;5029036;28;20045;-86
2022/05/09 05:38:32;;;;;;;13.95;5.55;;;9.00;99.90;;;;;;5026748;28;20064;-86
2022/05/09 05:40:58;;;;;;;11.88;5.10;;;9.50;99.90;;;;;;5030920;28;20739;-86
2022/05/09 05:43:23;;;;;;;10.90;5.05;;;9.70;99.90;;;;;;5030234;28;20045;-79
2022/05/09 05:45:55;;;;;;;11.93;5.18;;;9.80;99.90;;;;;;5013603;28;20135;-79
2022/05/09 05:48:21;;;;;;;13.88;5.35;;;10.10;99.90;;;;;;5027348;28;20079;-79
2022/05/09 05:50:47;;;;;;;12.68;4.75;;;10.30;99.90;;;;;;5029035;28;20049;-79
2022/05/09 05:53:13;;;;;;;11.80;4.80;;;10.60;99.90;;;;;;5044935;28;20099;-79
2022/05/09 05:55:38;;;;;;;16.98;5.25;;;11.00;99.90;;;;;;5021321;28;20079;-79
2022/05/09 05:58:04;;;;;;;16.15;5.22;;;11.20;99.90;;;;;;5028751;28;20048;-79
2022/05/09 06:00:30;;;;;;;17.60;5.72;;;11.10;99.90;;;;;;5013354;28;20133;-80
2022/05/09 06:02:56;;;;;;;13.98;5.70;;;11.30;99.90;;;;;;5012380;28;20037;-80
2022/05/09 06:05:21;;;;;;;12.32;4.72;;;11.70;99.90;;;;;;5010058;28;20095;-80
2022/05/09 06:07:52;;;;;;;15.43;5.10;;;12.00;99.90;;;;;;5027400;28;20049;-80
2022/05/09 06:10:18;;;;;;;12.27;4.93;;;12.50;99.90;;;;;;5031175;28;20770;-81
2022/05/09 06:12:44;;;;;;;15.77;5.82;;;12.90;99.90;;;;;;5023186;28;20548;-80
2022/05/09 06:15:33;;;;;;;19.65;5.18;;;13.00;99.90;;;;;;5028133;28;20044;-80
2022/05/09 06:18:04;;;;;;;15.43;4.97;;;13.40;99.90;;;;;;5027865;28;20048;-80
2022/05/09 06:20:34;;;;;;;14.38;5.13;;;14.00;99.90;;;;;;5028616;28;20136;-80
2022/05/09 06:23:00;;;;;;;14.30;5.00;;;14.20;99.90;;;;;;5030787;28;20048;-80
2022/05/09 06:25:28;;;;;;;13.90;5.18;;;14.80;99.90;;;;;;5026313;28;20037;-80
2022/05/09 06:27:54;;;;;;;10.85;4.53;;;15.10;99.90;;;;;;5026954;28;20447;-80
2022/05/09 06:30:22;;;;;;;14.80;5.53;;;15.50;99.90;;;;;;5037505;28;20383;-81
2022/05/09 06:32:48;;;;;;;15.55;5.20;;;15.90;99.90;;;;;;5047123;28;20037;-87
2022/05/09 06:35:20;;;;;;;11.80;4.50;;;16.60;99.90;;;;;;5033940;28;21452;-87
2022/05/09 06:37:50;;;;;;;14.68;4.72;;;16.80;99.90;;;;;;5026755;28;20458;-87
2022/05/09 06:40:17;;;;;;;13.77;4.90;;;17.20;99.90;;;;;;5017929;28;20029;-88
2022/05/09 06:42:43;;;;;;;11.80;4.68;;;17.40;99.90;;;;;;5034308;28;20116;-87
2022/05/09 06:45:10;;;;;;;14.57;5.13;;;17.80;99.90;;;;;;5020598;28;20125;-88
2022/05/09 06:47:47;;;;;;;12.50;5.00;;;18.00;97.80;;;;;;5016060;28;20041;-88
2022/05/09 06:50:13;;;;;;;12.75;4.30;;;18.00;98.20;;;;;;5022871;28;20037;-82
2022/05/09 06:52:39;;;;;;;11.93;4.45;;;18.00;98.20;;;;;;5028374;28;20044;-81
2022/05/09 06:55:06;;;;;;;16.80;4.65;;;17.90;98.70;;;;;;5030470;28;20044;-81
2022/05/09 06:57:33;;;;;;;10.65;3.92;;;18.30;98.70;;;;;;5037511;28;20151;-81
2022/05/09 06:59:58;;;;;;;11.05;4.45;;;19.00;98.00;;;;;;5036330;28;20025;-82
2022/05/09 07:02:24;;;;;;;9.95;4.43;;;19.60;96.80;;;;;;5032438;28;20059;-83
2022/05/09 07:04:50;;;;;;;12.75;4.65;;;19.80;96.00;;;;;;5031440;28;20041;-82
2022/05/09 07:07:15;;;;;;;14.20;4.80;;;19.90;94.20;;;;;;5021902;28;20037;-88
2022/05/09 07:09:41;;;;;;;13.65;4.70;;;20.20;91.90;;;;;;5017392;28;20066;-88
2022/05/09 07:12:07;;;;;;;18.40;4.30;;;20.50;93.40;;;;;;5018430;28;20076;-88
2022/05/09 07:14:33;;;;;;;13.10;4.57;;;20.90;92.20;;;;;;5031391;28;20493;-89
2022/05/09 07:16:59;;;;;;;13.18;4.22;;;21.30;91.00;;;;;;5014632;28;20146;-88
2022/05/09 07:19:24;;;;;;;13.73;4.10;;;21.90;90.90;;;;;;5031709;28;20052;-87
2022/05/09 07:21:50;;;;;;;13.38;4.38;;;22.30;84.30;;;;;;5000500;28;20123;-88
2022/05/09 07:24:16;;;;;;;14.15;4.47;;;22.60;83.60;;;;;;5034851;28;20482;-89
2022/05/09 07:26:41;;;;;;;13.45;4.63;;;22.40;81.70;;;;;;5036710;28;20116;-88
2022/05/09 07:29:09;;;;;;;13.63;4.25;;;23.00;82.10;;;;;;5017805;28;20044;-88
2022/05/09 07:31:34;;;;;;;10.57;4.00;;;22.90;78.10;;;;;;5045675;28;20668;-89
2022/05/09 07:34:01;;;;;;;11.70;4.20;;;23.30;77.70;;;;;;5017193;28;20037;-88
2022/05/09 07:36:27;;;;;;;14.75;4.30;;;23.30;78.30;;;;;;5039367;28;20033;-88
2022/05/09 07:38:53;;;;;;;13.25;4.25;;;23.90;75.60;;;;;;5036560;28;20040;-90
2022/05/09 07:41:18;;;;;;;12.30;3.85;;;24.00;76.10;;;;;;5019684;28;20403;-89
2022/05/09 07:43:44;;;;;;;10.85;4.78;;;24.50;75.60;;;;;;5024724;28;20047;-90
2022/05/09 07:46:10;;;;;;;14.38;4.75;;;24.60;72.60;;;;;;5014622;28;20036;-88
2022/05/09 07:48:35;;;;;;;13.48;3.90;;;24.80;71.90;;;;;;5015156;28;20116;-89
2022/05/09 07:51:01;;;;;;;12.93;4.13;;;25.20;71.00;;;;;;5029520;28;20481;-89
2022/05/09 07:53:31;;;;;;;11.05;4.35;;;25.20;71.10;;;;;;5032361;28;20051;-90
2022/05/09 07:55:56;;;;;;;11.80;4.20;;;25.40;68.80;;;;;;5029617;28;20072;-89
2022/05/09 07:58:23;;;;;;;12.05;4.10;;;26.00;68.60;;;;;;5033568;28;20076;-89
2022/05/09 08:00:49;;;;;;;11.52;3.90;;;26.40;67.00;;;;;;5035992;28;21499;-90
2022/05/09 08:03:21;;;;;;;14.43;4.45;;;26.50;65.40;;;;;;5034112;28;20059;-89
2022/05/09 08:05:49;;;;;;;9.93;3.88;;;26.90;64.40;;;;;;5017513;28;20055;-89
2022/05/09 08:08:16;;;;;;;9.23;3.75;;;26.90;64.00;;;;;;5029348;28;20060;-91
2022/05/09 08:10:43;;;;;;;11.93;3.97;;;27.30;63.60;;;;;;5029797;28;20047;-90
2022/05/09 08:13:11;;;;;;;10.10;3.90;;;27.50;63.40;;;;;;5016857;28;20055;-89
2022/05/09 08:15:37;;;;;;;12.00;4.15;;;27.70;62.90;;;;;;5028296;28;20500;-90
2022/05/09 08:18:03;;;;;;;13.45;4.05;;;27.00;61.20;;;;;;5030635;28;20773;-89
2022/05/09 08:20:30;;;;;;;14.40;4.05;;;26.50;61.50;;;;;;5002932;28;20130;-89
2022/05/09 08:23:10;;;;;;;10.57;3.85;;;26.70;60.10;;;;;;5018769;28;20104;-89
2022/05/09 08:25:38;;;;;;;10.43;3.78;;;27.20;60.70;;;;;;5005806;28;20128;-89
2022/05/09 08:28:05;;;;;;;12.32;4.85;;;27.30;58.30;;;;;;5034379;28;20044;-90
2022/05/09 08:30:35;;;;;;;13.20;4.10;;;27.20;59.00;;;;;;5060091;28;20033;-91
2022/05/09 08:33:06;;;;;;;11.75;3.92;;;27.80;58.20;;;;;;5014744;28;20073;-90
2022/05/09 08:35:33;;;;;;;10.80;3.80;;;28.30;56.40;;;;;;5031956;28;20095;-89
2022/05/09 08:37:59;;;;;;;10.75;4.15;;;28.30;53.70;;;;;;5032055;28;20033;-90
2022/05/09 08:40:44;;;;;;;9.75;3.70;;;28.90;55.80;;;;;;5031520;28;20446;-90
2022/05/09 08:43:12;;;;;;;;;;;29.50;54.70;;;;;;5022524;28;20041;-91
2022/05/09 08:45:47;;;;;;;8.75;3.60;;;29.80;52.10;;;;;;5005515;28;19928;-83
2022/05/09 08:48:37;;;;;;;10.38;3.63;;;29.60;51.50;;;;;;5001636;28;20064;-83
2022/05/09 08:51:30;;;;;;;10.18;3.65;;;30.00;51.80;;;;;;5034787;28;20087;-82
2022/05/09 08:54:02;;;;;;;13.55;3.88;;;30.30;51.10;;;;;;5047898;28;20759;-83
2022/05/09 08:56:28;;;;;;;13.07;3.95;;;30.60;51.70;;;;;;5018130;28;20451;-83
2022/05/09 08:59:00;;;;;;;10.50;3.55;;;30.70;50.40;;;;;;5015104;28;20148;-82
2022/05/09 09:01:38;;;;;;;8.50;3.13;;;31.00;48.80;;;;;;5013930;28;20119;-83
2022/05/09 09:04:12;;;;;;;7.40;3.33;;;30.60;48.80;;;;;;5024524;28;20037;-91
2022/05/09 09:06:57;;;;;;;9.15;3.40;;;31.30;50.10;;;;;;5021213;28;20244;-90
2022/05/09 09:09:42;;;;;;;11.20;3.70;;;31.40;49.60;;;;;;5017367;28;20071;-91
2022/05/09 09:12:26;;;;;;;9.70;3.45;;;30.80;47.60;;;;;;5019891;28;20112;-90
2022/05/09 09:15:36;;;;;;;9.05;3.78;;;31.20;47.50;;;;;;5007671;28;20110;-91
2022/05/09 09:18:40;;;;;;;9.80;3.35;;;30.50;46.60;;;;;;5016878;28;20041;-91
2022/05/09 09:21:22;;;;;;;11.88;3.60;;;30.30;44.70;;;;;;5003792;28;20077;-83
2022/05/09 09:24:11;;;;;;;9.02;3.22;;;30.60;46.90;;;;;;4992467;28;20045;-83
2022/05/09 09:27:10;;;;;;;9.90;3.00;;;31.40;47.00;;;;;;4995768;28;20037;-83
2022/05/09 09:29:49;;;;;;;10.52;3.33;;;32.10;45.70;;;;;;5009551;28;20159;-83
2022/05/09 09:32:18;;;;;;;8.50;2.83;;;31.20;45.70;;;;;;5007299;28;20068;-83
2022/05/09 09:34:56;;;;;;;12.13;3.40;;;31.10;44.30;;;;;;5009078;28;20056;-83
2022/05/09 09:37:55;;;;;;;11.63;3.15;;;30.40;42.30;;;;;;5003984;28;20760;-83
2022/05/09 09:40:21;;;;;;;8.93;3.17;;;30.60;44.30;;;;;;5004049;28;20038;-82
2022/05/09 09:42:52;;;;;;;7.93;2.90;;;30.60;45.10;;;;;;5003963;28;20052;-83
2022/05/09 09:45:40;;;;;;;11.10;3.28;;;31.30;44.10;;;;;;5005635;28;20131;-83
2022/05/09 09:48:14;;;;;;;7.82;2.75;;;30.70;44.00;;;;;;5007029;28;20052;-83
2022/05/09 09:51:20;;;;;;;7.45;2.63;;;31.70;43.00;;;;;;4989091;28;20048;-83
2022/05/09 09:53:52;;;;;;;7.07;2.88;;;32.10;42.20;;;;;;5001942;28;20060;-83
2022/05/09 09:56:20;;;;;;;7.03;3.08;;;32.90;41.70;;;;;;5003699;28;20124;-82
2022/05/09 09:58:47;;;;;;;7.43;2.80;;;32.80;43.30;;;;;;4989146;28;20107;-83
2022/05/09 10:01:15;;;;;;;8.40;3.00;;;;;;;;;;5019056;28;20049;-83
2022/05/09 10:03:45;;;;;;;9.05;2.80;;;32.70;40.70;;;;;;5002741;28;20048;-83
2022/05/09 10:06:21;;;;;;;9.35;3.60;;;32.90;41.00;;;;;;5003233;28;20042;-83
2022/05/09 10:08:56;;;;;;;8.40;2.67;;;32.90;40.20;;;;;;5003698;28;20030;-83
2022/05/09 10:11:23;;;;;;;6.50;2.97;;;33.10;40.70;;;;;;4990235;28;20373;-82
2022/05/09 10:13:52;;;;;;;7.22;2.97;;;33.00;39.60;;;;;;5008116;28;20506;-82
2022/05/09 10:16:45;;;;;;;7.00;2.75;;;33.40;40.00;;;;;;5007647;28;20050;-83
2022/05/09 10:19:27;;;;;;;8.48;3.22;;;32.70;40.20;;;;;;5012916;28;20064;-83
2022/05/09 10:24:49;;;;;;;6.15;2.88;;;32.60;40.00;;;;;;5008412;28;20095;-83
2022/05/09 10:27:22;;;;;;;8.73;2.95;;;32.50;40.00;;;;;;5012496;28;20041;-88
2022/05/09 10:29:50;;;;;;;8.15;3.10;;;31.60;40.60;;;;;;5045219;28;20057;-87
2022/05/09 10:32:35;;;;;;;8.10;3.15;;;32.00;40.50;;;;;;5027070;28;20451;-89
2022/05/09 10:35:05;;;;;;;7.50;3.08;;;32.70;40.00;;;;;;5027825;28;20041;-87
2022/05/09 10:37:38;;;;;;;8.52;2.42;;;33.30;40.80;;;;;;5028886;28;20049;-88
2022/05/09 10:40:09;;;;;;;8.23;2.60;;;32.90;40.30;;;;;;5027678;28;20049;-89
2022/05/09 10:42:49;;;;;;;7.35;2.40;;;33.00;40.30;;;;;;5028582;28;20476;-81
2022/05/09 10:45:21;;;;;;;9.57;3.20;;;32.90;39.90;;;;;;5026192;28;20370;-80
2022/05/09 10:47:47;;;;;;;7.30;3.08;;;32.20;40.20;;;;;;5027623;28;20044;-80
2022/05/09 10:50:16;;;;;;;7.40;2.97;;;32.40;39.40;;;;;;5027705;28;20038;-80
2022/05/09 10:52:55;;;;;;;9.65;2.90;;;32.60;39.90;;;;;;5026719;28;20394;-80
2022/05/09 10:55:48;;;;;;;6.05;2.50;;;32.80;39.00;;;;;;5028099;28;20034;-80
2022/05/09 10:58:26;;;;;;;6.72;2.60;;;32.80;38.10;;;;;;5041987;28;20052;-81
2022/05/09 11:00:58;;;;;;;5.47;2.50;;;32.80;37.00;;;;;;5011496;28;20052;-80
2022/05/09 11:03:36;;;;;;;10.93;3.20;;;33.00;38.90;;;;;;5011131;28;20116;-80
2022/05/09 11:06:12;;;;;;;6.90;2.88;;;32.50;38.50;;;;;;5018101;28;20064;-80
2022/05/09 11:09:15;;;;;;;6.65;2.92;;;32.70;39.20;;;;;;5027358;28;20041;-80
2022/05/09 11:11:55;;;;;;;7.50;2.80;;;32.60;38.20;;;;;;5027707;28;20038;-80
2022/05/09 11:14:28;;;;;;;7.97;2.80;;;32.70;38.00;;;;;;5026611;28;20052;-80
2022/05/09 11:17:04;;;;;;;8.95;2.83;;;32.80;38.50;;;;;;5026162;28;20041;-80
2022/05/09 11:19:45;;;;;;;6.18;2.65;;;33.10;38.30;;;;;;5009609;28;20482;-80
2022/05/09 11:22:26;;;;;;;8.00;2.60;;;32.70;37.00;;;;;;5026033;28;20479;-80
2022/05/09 11:25:29;;;;;;;9.25;2.67;;;33.10;38.60;;;;;;5023347;28;20437;-80
2022/05/09 11:28:16;;;;;;;7.25;2.60;;;32.50;38.50;;;;;;5025744;28;20041;-80
2022/05/09 11:30:50;;;;;;;7.75;2.63;;;32.50;41.00;;;;;;5024396;28;20507;-80
2022/05/09 11:33:44;;;;;;;7.90;2.60;;;32.70;38.70;;;;;;5024203;28;20044;-80
2022/05/09 11:36:39;;;;;;;8.38;3.03;;;32.80;37.00;;;;;;5026527;28;20094;-80
2022/05/09 11:39:17;;;;;;;7.95;2.38;;;32.30;37.80;;;;;;5015052;28;20104;-80
2022/05/09 11:43:27;;;;;;;6.65;2.50;;;32.80;39.40;;;;;;5024981;28;21073;-80
2022/05/09 11:45:07;;;;;;;7.32;2.72;;;32.20;37.10;;;;;;5026195;28;20406;-80
2022/05/09 11:47:46;;;;;;;6.72;2.75;;;30.60;37.80;;;;;;5025420;28;20060;-80
2022/05/09 11:50:25;;;;;;;8.25;2.60;;;30.70;39.40;;;;;;5026111;28;20049;-80
2022/05/09 11:52:52;;;;;;;6.13;2.53;;;31.10;37.90;;;;;;5025331;28;20040;-80
2022/05/09 11:55:23;;;;;;;7.63;2.78;;;30.90;39.00;;;;;;5026642;28;20293;-80
2022/05/09 11:57:56;;;;;;;8.35;2.25;;;30.90;40.10;;;;;;5027401;28;20036;-80
2022/05/09 12:00:25;;;;;;;11.48;2.58;;;31.80;40.80;;;;;;5025632;28;20049;-80
2022/05/09 12:02:54;;;;;;;7.20;2.85;;;32.00;39.80;;;;;;5025700;28;20040;-80
2022/05/09 12:05:26;;;;;;;10.30;2.85;;;31.20;39.50;;;;;;5027391;28;20042;-88
2022/05/09 12:08:01;;;;;;;8.07;2.60;;;31.20;40.00;;;;;;5023702;28;20052;-87
2022/05/09 12:10:31;;;;;;;7.95;2.50;;;31.20;40.00;;;;;;5025435;28;20118;-87
2022/05/09 12:13:12;;;;;;;7.53;2.72;;;30.40;39.10;;;;;;5009675;28;20391;-86
2022/05/09 12:15:41;;;;;;;11.95;3.40;;;30.30;39.80;;;;;;5022899;28;20033;-87
2022/05/09 12:18:07;;;;;;;9.45;2.50;;;29.90;40.70;;;;;;5010072;28;20079;-87
2022/05/09 12:20:37;;;;;;;7.63;2.88;;;29.80;41.80;;;;;;5025888;28;20558;-87
2022/05/09 12:23:10;;;;;;;12.63;2.95;;;28.80;41.10;;;;;;5039672;28;20055;-80
2022/05/09 12:25:40;;;;;;;8.82;2.67;;;28.20;42.20;;;;;;5024179;28;20076;-80
2022/05/09 12:28:18;;;;;;;9.07;2.83;;;27.40;41.90;;;;;;5024480;28;20112;-80
2022/05/09 12:30:59;;;;;;;6.63;3.10;;;27.70;43.20;;;;;;5024800;28;20552;-80
2022/05/09 12:33:35;;;;;;;13.35;3.15;;;27.90;45.00;;;;;;5026091;28;20181;-80
2022/05/09 12:36:35;;;;;;;11.45;2.85;;;27.90;43.20;;;;;;5024842;28;20049;-80
2022/05/09 12:39:12;;;;;;;10.57;2.80;;;27.70;43.10;;;;;;5018360;28;20049;-87
2022/05/09 12:41:45;;;;;;;8.15;2.67;;;27.50;44.10;;;;;;5026451;28;20056;-87
2022/05/09 12:44:23;;;;;;;9.48;2.90;;;27.40;45.30;;;;;;5024192;28;20540;-86
2022/05/09 12:47:05;;;;;;;8.70;2.50;;;27.30;44.80;;;;;;5023593;28;20037;-88
2022/05/09 12:49:36;;;;;;;9.10;2.70;;;26.80;45.80;;;;;;5024338;28;20048;-86
2022/05/09 12:52:03;;;;;;;10.07;2.63;;;26.50;45.10;;;;;;5010738;28;20033;-87
2022/05/09 12:54:30;;;;;;;6.28;2.42;;;26.60;45.00;;;;;;5027164;28;20144;-87
2022/05/09 12:57:00;;;;;;;7.97;2.60;;;26.60;44.90;;;;;;5024208;28;20052;-80
2022/05/09 12:59:47;;;;;;;10.73;3.03;;;26.50;45.80;;;;;;5009080;28;20045;-80
2022/05/09 13:02:20;;;;;;;6.18;2.70;;;26.60;46.70;;;;;;5025124;28;21356;-80
2022/05/09 13:04:49;;;;;;;8.93;2.83;;;26.90;44.80;;;;;;5024658;28;20155;-80
2022/05/09 13:07:15;;;;;;;10.77;2.55;;;27.00;44.60;;;;;;5015925;28;20309;-80
2022/05/09 13:09:53;;;;;;;7.85;2.90;;;26.70;45.00;;;;;;5023881;28;21351;-80
2022/05/09 13:12:30;;;;;;;8.10;2.50;;;26.10;44.40;;;;;;5022093;28;20056;-80
2022/05/09 13:15:17;;;;;;;9.32;2.88;;;25.90;45.30;;;;;;5020450;28;20051;-80